Hauptseite
METAR-TAF:

METAR-TAF

Flughäfen :

Flughafen Yao

Yao, Japan

Breite: 34-36N, Länge: 135-36E, Höhe: 10 m

Beobachtung

Neuester Wetterbericht von vor 5 Stunden und 5 Minuten, um 10:00 UTC
Wind 9 kt aus Nord
Temperatur 22°C
Luftfeuchtigkeit 46%
Luftdruck 1006 hPa
Sichtweite 10 km oder mehr
Leicht bewölkt in der Höhe von 4000 ft

METAR: RJOY 031000Z 36009KT 9999 FEW040 22/10 Q1006

Zeit: 00:05 (15:05 UTC)


TAF: fehlend

Wetterbeobachtungen und Prognosen von mehr als 4000 Flughäfen (METAR und TAF Bericht).

Die verfügbaren Stationen werden durch gelbe und rote Markierungen auf der Karte dargestellt.

Führen Sie die Maus auf sie, um den Namen der Station zu sehen.

Darauf klicken, um die Beobachtung von Wetterbeobachtungen und Prognosen zu sehen.

Um die Karte zu ändern : klicken Sie auf den grünen Tasten mit einem schwarzen Kreuz Zum Vergrößern, auf den grünen Button mit einem Gedankenstrich zu verkleinern, oder auf die grünen Pfeile für benachbarte Karten.


METAR-TAF: